Time;durP1;ratioP1;P1;durP2;ratioP2;P2;SDS_P1;SDS_P2;PMS_P1;PMS_P2;Temp;Humidity;BMP_temperature;BMP_pressure;BME280_temperature;BME280_humidity;BME280_pressure;Samples;Min_cycle;Max_cycle;Signal;HPM_P1;HPM_P2
2023/07/11 00:00:43;;;;;;;11.27;7.60;;;;;;;;;;6229714;22;21021;-89
2023/07/11 00:03:10;;;;;;;11.77;7.60;;;;;;;;;;6230776;22;20415;-89
2023/07/11 00:05:36;;;;;;;12.47;8.50;;;;;;;;;;6230560;22;20723;-89
2023/07/11 00:08:02;;;;;;;9.87;8.00;;;;;;;;;;6231196;22;20416;-89
2023/07/11 00:10:29;;;;;;;14.87;8.57;;;;;;;;;;6229932;22;20374;-89
2023/07/11 00:12:55;;;;;;;14.00;9.23;;;;;;;;;;6229954;22;20727;-90
2023/07/11 00:15:20;;;;;;;11.40;9.63;;;;;;;;;;6227755;22;20412;-89
2023/07/11 00:17:47;;;;;;;16.97;10.50;;;;;;;;;;6255958;22;20696;-89
2023/07/11 00:20:16;;;;;;;16.33;10.83;;;;;;;;;;6255547;22;20860;-90
2023/07/11 00:22:42;;;;;;;16.20;11.37;;;;;;;;;;6230235;22;20393;-89
2023/07/11 00:25:09;;;;;;;15.17;10.87;;;;;;;;;;6229297;22;20389;-89
2023/07/11 00:27:35;;;;;;;14.13;11.10;;;;;;;;;;6228393;22;20915;-89
2023/07/11 00:30:01;;;;;;;19.70;11.53;;;;;;;;;;6228857;22;20464;-89
2023/07/11 00:32:27;;;;;;;13.40;10.80;;;;;;;;;;6228752;22;20382;-89
2023/07/11 00:34:53;;;;;;;13.90;11.23;;;;;;;;;;6229893;22;20373;-89
2023/07/11 00:37:19;;;;;;;15.03;10.93;;;;;;;;;;6228479;22;20377;-90
2023/07/11 00:39:45;;;;;;;14.87;11.63;;;;;;;;;;6230391;22;20392;-90
2023/07/11 00:42:13;;;;;;;17.47;12.40;;;;;;;;;;6255987;22;20357;-88
2023/07/11 00:44:55;;;;;;;18.27;11.53;;;;;;;;;;6231317;22;20377;-89
2023/07/11 00:47:22;;;;;;;16.03;12.67;;;;;;;;;;6229172;22;20385;-90
2023/07/11 00:49:48;;;;;;;17.67;14.07;;;;;;;;;;6230467;22;20377;-89
2023/07/11 00:52:14;;;;;;;17.90;12.47;;;;;;;;;;6228818;22;20908;-90
2023/07/11 00:54:40;;;;;;;18.10;12.70;;;;;;;;;;6228652;22;20464;-90
2023/07/11 00:57:08;;;;;;;17.73;12.90;;;;;;;;;;6226952;22;20385;-89
2023/07/11 00:59:34;;;;;;;15.07;11.80;;;;;;;;;;6229730;22;20404;-89
2023/07/11 01:02:11;;;;;;;21.03;13.20;;;;;;;;;;6254714;22;20361;-90
2023/07/11 01:04:38;;;;;;;17.10;12.80;;;;;;;;;;6230695;22;20365;-90
2023/07/11 01:07:04;;;;;;;17.50;14.10;;;;;;;;;;6228248;22;20396;-90
2023/07/11 01:09:30;;;;;;;19.70;14.17;;;;;;;;;;6230413;22;20447;-90
2023/07/11 01:12:01;;;;;;;18.07;14.20;;;;;;;;;;6228080;22;20378;-88
2023/07/11 01:14:27;;;;;;;19.00;14.60;;;;;;;;;;6228008;22;20378;-89
2023/07/11 01:16:53;;;;;;;18.20;15.13;;;;;;;;;;6227816;22;20454;-89
2023/07/11 01:19:20;;;;;;;21.30;16.20;;;;;;;;;;6231214;22;20845;-90
2023/07/11 01:21:46;;;;;;;23.53;16.77;;;;;;;;;;6228775;22;20853;-90
2023/07/11 01:24:12;;;;;;;28.37;18.37;;;;;;;;;;6228968;22;20383;-90
2023/07/11 01:26:38;;;;;;;24.37;18.37;;;;;;;;;;6227586;22;20396;-90
2023/07/11 01:29:04;;;;;;;22.47;17.07;;;;;;;;;;6230236;22;20417;-90
2023/07/11 01:31:33;;;;;;;22.87;15.57;;;;;;;;;;6228661;22;20393;-90
2023/07/11 01:34:00;;;;;;;21.87;18.20;;;;;;;;;;6229147;22;20435;-90
2023/07/11 01:36:26;;;;;;;24.13;20.00;;;;;;;;;;6226729;22;20385;-90
2023/07/11 01:38:52;;;;;;;31.07;20.10;;;;;;;;;;6255858;22;21235;-91
2023/07/11 01:41:18;;;;;;;26.33;19.50;;;;;;;;;;6228018;22;20381;-90
2023/07/11 01:43:44;;;;;;;28.43;20.40;;;;;;;;;;6227505;22;20388;-90
2023/07/11 01:46:10;;;;;;;24.67;19.70;;;;;;;;;;6229362;22;20866;-89
2023/07/11 01:48:36;;;;;;;25.27;21.60;;;;;;;;;;6228692;22;20420;-90
2023/07/11 01:51:02;;;;;;;20.77;17.30;;;;;;;;;;6228410;22;20373;-90
2023/07/11 01:53:28;;;;;;;25.97;19.33;;;;;;;;;;6252787;22;20367;-90
2023/07/11 01:55:58;;;;;;;25.77;20.07;;;;;;;;;;6228822;22;20661;-90
2023/07/11 01:58:24;;;;;;;27.13;21.90;;;;;;;;;;6228924;22;20396;-89
2023/07/11 02:00:50;;;;;;;28.00;20.13;;;;;;;;;;6227713;22;20476;-90
2023/07/11 02:03:16;;;;;;;26.97;22.10;;;;;;;;;;6226014;22;20745;-88
2023/07/11 02:05:42;;;;;;;29.77;23.23;;;;;;;;;;6252789;22;20380;-88
2023/07/11 02:08:08;;;;;;;26.10;22.10;;;;;;;;;;6228227;22;20582;-90
2023/07/11 02:10:34;;;;;;;27.63;21.13;;;;;;;;;;6227287;22;20380;-90
2023/07/11 02:13:00;;;;;;;25.80;21.07;;;;;;;;;;6226324;22;20378;-90
2023/07/11 02:15:26;;;;;;;28.33;21.37;;;;;;;;;;6228524;22;20370;-90
2023/07/11 02:17:52;;;;;;;25.93;20.37;;;;;;;;;;6225821;22;20922;-90
2023/07/11 02:20:18;;;;;;;24.53;18.23;;;;;;;;;;6226545;22;20396;-90
2023/07/11 02:22:44;;;;;;;23.47;19.07;;;;;;;;;;6227345;22;20389;-90
2023/07/11 02:25:10;;;;;;;28.23;15.97;;;;;;;;;;6229299;22;20377;-90
2023/07/11 02:27:36;;;;;;;20.57;16.37;;;;;;;;;;6227137;22;20413;-90
2023/07/11 02:30:02;;;;;;;18.90;15.30;;;;;;;;;;6228036;22;20377;-90
2023/07/11 02:32:28;;;;;;;20.50;17.70;;;;;;;;;;6227029;22;20377;-90
2023/07/11 02:34:54;;;;;;;22.57;16.10;;;;;;;;;;6228626;22;20380;-90
2023/07/11 02:37:20;;;;;;;21.17;15.73;;;;;;;;;;6227469;22;20407;-90
2023/07/11 02:39:46;;;;;;;22.50;16.47;;;;;;;;;;6226856;22;20740;-89
2023/07/11 02:42:12;;;;;;;20.70;16.20;;;;;;;;;;6251872;22;20415;-90
2023/07/11 02:44:38;;;;;;;20.67;16.27;;;;;;;;;;6226217;22;20853;-90
2023/07/11 02:47:04;;;;;;;24.83;17.53;;;;;;;;;;6228114;22;20707;-89
2023/07/11 02:49:30;;;;;;;20.37;16.97;;;;;;;;;;6226606;22;20401;-89
2023/07/11 02:51:56;;;;;;;26.00;18.87;;;;;;;;;;6226383;22;20416;-89
2023/07/11 02:54:23;;;;;;;27.83;19.57;;;;;;;;;;6227138;22;21011;-89
2023/07/11 02:56:49;;;;;;;22.23;17.43;;;;;;;;;;6226264;22;20385;-90
2023/07/11 02:59:15;;;;;;;26.27;18.33;;;;;;;;;;6226249;22;21031;-90
2023/07/11 03:01:41;;;;;;;21.50;16.80;;;;;;;;;;6252898;22;20693;-90
2023/07/11 03:04:07;;;;;;;22.33;16.80;;;;;;;;;;6227644;22;20380;-90
2023/07/11 03:06:33;;;;;;;24.40;16.77;;;;;;;;;;6228738;22;21061;-90
2023/07/11 03:08:59;;;;;;;23.67;17.00;;;;;;;;;;6228030;22;20974;-90
2023/07/11 03:11:25;;;;;;;17.00;14.40;;;;;;;;;;6254126;22;20358;-89
2023/07/11 03:13:51;;;;;;;22.80;18.10;;;;;;;;;;6226465;22;20375;-89
2023/07/11 03:16:17;;;;;;;23.77;18.13;;;;;;;;;;6229524;22;20369;-89
2023/07/11 03:18:43;;;;;;;28.23;19.70;;;;;;;;;;6228445;22;20412;-89
2023/07/11 03:21:09;;;;;;;26.37;19.07;;;;;;;;;;6228809;22;20369;-90
2023/07/11 03:23:35;;;;;;;23.77;17.83;;;;;;;;;;6229375;22;20373;-90
2023/07/11 03:26:01;;;;;;;19.90;17.50;;;;;;;;;;6238331;22;20365;-91
2023/07/11 03:28:27;;;;;;;23.53;17.43;;;;;;;;;;6230454;22;20424;-91
2023/07/11 03:30:53;;;;;;;23.63;16.20;;;;;;;;;;6232693;22;20380;-90
2023/07/11 03:33:19;;;;;;;20.77;16.23;;;;;;;;;;6229182;22;20411;-90
2023/07/11 03:35:49;;;;;;;18.57;14.90;;;;;;;;;;6231378;22;20408;-90
2023/07/11 03:38:15;;;;;;;16.10;13.80;;;;;;;;;;6229082;22;20404;-90
2023/07/11 03:40:41;;;;;;;19.37;16.83;;;;;;;;;;6233442;22;20381;-90
2023/07/11 03:43:07;;;;;;;18.87;13.83;;;;;;;;;;6230711;22;20446;-90
2023/07/11 03:45:33;;;;;;;15.73;13.70;;;;;;;;;;6232945;22;20588;-90
2023/07/11 03:47:59;;;;;;;16.00;13.20;;;;;;;;;;6231438;22;20409;-89
2023/07/11 03:50:25;;;;;;;15.20;12.93;;;;;;;;;;6231572;22;20393;-91
2023/07/11 03:52:51;;;;;;;17.43;12.73;;;;;;;;;;6230071;22;20416;-90
2023/07/11 03:55:17;;;;;;;18.43;13.83;;;;;;;;;;6233438;22;20441;-91
2023/07/11 03:57:43;;;;;;;16.73;12.80;;;;;;;;;;6233103;22;20924;-90
2023/07/11 04:00:09;;;;;;;16.00;12.47;;;;;;;;;;6230004;22;20422;-90
2023/07/11 04:02:35;;;;;;;18.30;12.20;;;;;;;;;;6229360;22;20892;-91
2023/07/11 04:05:01;;;;;;;17.67;13.87;;;;;;;;;;6229877;22;20400;-91
2023/07/11 04:07:27;;;;;;;14.17;12.10;;;;;;;;;;6230369;22;20468;-90
2023/07/11 04:09:55;;;;;;;13.53;12.00;;;;;;;;;;6229569;22;20842;-90
2023/07/11 04:12:21;;;;;;;14.70;12.40;;;;;;;;;;6231003;22;21225;-90
2023/07/11 04:14:47;;;;;;;13.20;11.20;;;;;;;;;;6231915;22;20369;-90
2023/07/11 04:17:13;;;;;;;14.30;10.93;;;;;;;;;;6233621;22;20369;-90
2023/07/11 04:19:39;;;;;;;13.30;10.43;;;;;;;;;;6233113;22;20464;-90
2023/07/11 04:22:05;;;;;;;13.70;10.23;;;;;;;;;;6233089;22;20373;-89
2023/07/11 04:24:31;;;;;;;13.80;10.83;;;;;;;;;;6230726;22;20374;-90
2023/07/11 04:26:56;;;;;;;14.07;9.77;;;;;;;;;;6237775;22;20776;-91
2023/07/11 04:29:22;;;;;;;13.80;10.50;;;;;;;;;;6233830;22;20417;-90
2023/07/11 04:31:48;;;;;;;11.67;9.53;;;;;;;;;;6259750;22;20731;-90
2023/07/11 04:34:14;;;;;;;11.80;9.07;;;;;;;;;;6257985;22;20369;-93
2023/07/11 04:36:40;;;;;;;9.70;8.70;;;;;;;;;;6231544;22;20365;-90
2023/07/11 04:39:07;;;;;;;12.43;9.80;;;;;;;;;;6256312;22;20685;-90
2023/07/11 04:41:33;;;;;;;12.33;8.20;;;;;;;;;;6234081;22;20361;-90
2023/07/11 04:43:59;;;;;;;9.30;8.20;;;;;;;;;;6256498;22;20895;-90
2023/07/11 04:46:25;;;;;;;9.13;8.23;;;;;;;;;;6233329;22;20470;-90
2023/07/11 04:48:51;;;;;;;14.07;8.93;;;;;;;;;;6256884;22;20416;-90
2023/07/11 04:51:17;;;;;;;11.17;8.90;;;;;;;;;;6232696;22;20860;-90
2023/07/11 04:53:43;;;;;;;9.97;7.20;;;;;;;;;;6232857;22;20400;-94
2023/07/11 04:56:12;;;;;;;11.87;7.90;;;;;;;;;;6236681;22;20434;-90
2023/07/11 04:58:39;;;;;;;10.37;8.77;;;;;;;;;;6258656;22;20393;-91
2023/07/11 05:01:06;;;;;;;11.77;8.23;;;;;;;;;;6261057;22;21053;-90
2023/07/11 05:03:32;;;;;;;11.27;8.20;;;;;;;;;;6230188;22;20370;-90
2023/07/11 05:05:58;;;;;;;16.63;8.23;;;;;;;;;;6231152;22;20521;-91
2023/07/11 05:08:24;;;;;;;14.23;9.57;;;;;;;;;;6229326;22;20413;-91
2023/07/11 05:10:53;;;;;;;10.03;7.10;;;;;;;;;;6231007;22;20390;-90
2023/07/11 05:13:19;;;;;;;9.90;8.37;;;;;;;;;;6227821;22;20373;-91
2023/07/11 05:15:45;;;;;;;13.23;8.73;;;;;;;;;;6231579;22;20404;-90
2023/07/11 05:18:11;;;;;;;12.90;8.27;;;;;;;;;;6228948;22;20377;-90
2023/07/11 05:20:39;;;;;;;13.70;9.33;;;;;;;;;;6232035;22;20394;-90
2023/07/11 05:23:05;;;;;;;10.30;8.97;;;;;;;;;;6230798;22;20372;-88
2023/07/11 05:25:31;;;;;;;12.37;8.40;;;;;;;;;;6232680;22;20382;-89
2023/07/11 05:27:56;;;;;;;12.60;9.60;;;;;;;;;;6229846;22;20436;-88
2023/07/11 05:30:22;;;;;;;10.53;8.40;;;;;;;;;;6236348;22;20389;-89
2023/07/11 05:32:49;;;;;;;16.33;7.90;;;;;;;;;;6231641;22;20389;-90
2023/07/11 05:35:15;;;;;;;18.07;8.70;;;;;;;;;;6256473;22;20369;-89
2023/07/11 05:37:41;;;;;;;10.63;8.77;;;;;;;;;;6229162;22;20485;-89
2023/07/11 05:40:08;;;;;;;11.73;8.10;;;;;;;;;;6232721;22;20373;-91
2023/07/11 05:42:34;;;;;;;10.40;8.67;;;;;;;;;;6230752;22;20448;-89
2023/07/11 05:45:00;;;;;;;10.73;8.50;;;;;;;;;;6230508;22;20374;-88
2023/07/11 05:47:26;;;;;;;8.57;7.50;;;;;;;;;;6255148;22;20370;-90
2023/07/11 05:49:52;;;;;;;8.60;7.63;;;;;;;;;;6231529;22;20392;-89
2023/07/11 05:52:18;;;;;;;8.33;7.40;;;;;;;;;;6230571;22;20433;-89
2023/07/11 05:54:44;;;;;;;11.03;7.77;;;;;;;;;;6224247;23;20398;-90
2023/07/11 05:57:09;;;;;;;12.87;7.80;;;;;;;;;;6199081;23;20381;-89
2023/07/11 05:59:35;;;;;;;7.50;6.50;;;;;;;;;;6198454;23;20417;-88
2023/07/11 06:02:01;;;;;;;10.50;7.20;;;;;;;;;;6198984;23;20930;-89
2023/07/11 06:04:27;;;;;;;9.67;6.37;;;;;;;;;;6249914;23;20374;-91
2023/07/11 06:06:53;;;;;;;11.07;6.70;;;;;;;;;;6199358;23;20379;-89
2023/07/11 06:09:20;;;;;;;7.50;6.07;;;;;;;;;;6201098;23;20418;-90
2023/07/11 06:11:47;;;;;;;10.80;7.10;;;;;;;;;;6199905;23;20754;-89
2023/07/11 06:14:13;;;;;;;7.70;6.83;;;;;;;;;;6199898;23;20382;-89
2023/07/11 06:16:39;;;;;;;9.73;7.50;;;;;;;;;;6201277;23;20378;-89
2023/07/11 06:19:05;;;;;;;8.80;6.50;;;;;;;;;;6199558;23;20389;-89
2023/07/11 06:21:31;;;;;;;11.30;6.47;;;;;;;;;;6204491;23;20386;-88
2023/07/11 06:23:57;;;;;;;9.90;6.90;;;;;;;;;;6200089;23;20378;-89
2023/07/11 06:26:23;;;;;;;8.07;6.47;;;;;;;;;;6226551;22;20377;-89
2023/07/11 06:28:49;;;;;;;10.53;6.97;;;;;;;;;;6230875;22;20417;-89
2023/07/11 06:31:15;;;;;;;10.93;6.53;;;;;;;;;;6229278;22;20397;-89
2023/07/11 06:33:41;;;;;;;8.70;5.83;;;;;;;;;;6255290;22;20369;-90
2023/07/11 06:36:07;;;;;;;10.43;5.77;;;;;;;;;;6231837;22;20401;-91
2023/07/11 06:38:33;;;;;;;11.33;5.50;;;;;;;;;;6231446;22;20388;-91
2023/07/11 06:40:59;;;;;;;7.30;5.80;;;;;;;;;;6238245;22;20380;-91
2023/07/11 06:43:25;;;;;;;9.87;6.67;;;;;;;;;;6231588;22;20377;-91
2023/07/11 06:45:55;;;;;;;8.50;6.10;;;;;;;;;;6234243;22;20393;-91
2023/07/11 06:48:21;;;;;;;6.60;5.73;;;;;;;;;;6235786;22;20417;-92
2023/07/11 06:50:49;;;;;;;7.40;6.03;;;;;;;;;;6234321;22;20400;-92
2023/07/11 06:53:15;;;;;;;7.63;5.93;;;;;;;;;;6233769;22;20377;-94
2023/07/11 06:55:47;;;;;;;6.80;5.67;;;;;;;;;;6235931;22;20407;-91
2023/07/11 06:58:14;;;;;;;7.83;5.63;;;;;;;;;;6234547;22;20861;-91
2023/07/11 07:00:40;;;;;;;9.37;6.80;;;;;;;;;;6236919;22;20396;-90
2023/07/11 07:03:07;;;;;;;7.73;5.93;;;;;;;;;;6233976;22;20385;-90
2023/07/11 07:05:33;;;;;;;12.10;5.60;;;;;;;;;;6230423;22;20397;-89
2023/07/11 07:08:00;;;;;;;9.17;6.17;;;;;;;;;;6228390;22;20430;-90
2023/07/11 07:10:30;;;;;;;7.30;6.60;;;;;;;;;;6231361;22;20411;-88
2023/07/11 07:12:56;;;;;;;7.23;6.33;;;;;;;;;;6226733;22;20455;-90
2023/07/11 07:15:22;;;;;;;8.30;6.33;;;;;;;;;;6227534;22;20386;-90
2023/07/11 07:17:48;;;;;;;10.23;6.10;;;;;;;;;;6227922;22;20702;-91
2023/07/11 07:20:14;;;;;;;7.30;5.37;;;;;;;;;;6257146;22;20688;-91
2023/07/11 07:22:40;;;;;;;7.40;6.27;;;;;;;;;;6229609;22;20420;-92
2023/07/11 07:25:06;;;;;;;10.40;5.87;;;;;;;;;;6232071;22;20399;-92
2023/07/11 07:27:39;;;;;;;7.33;5.60;;;;;;;;;;6258050;22;20369;-91
2023/07/11 07:30:12;;;;;;;8.63;6.03;;;;;;;;;;6234832;22;20387;-92
2023/07/11 07:32:42;;;;;;;7.50;5.73;;;;;;;;;;6230993;22;20460;-92
2023/07/11 07:35:09;;;;;;;7.77;6.57;;;;;;;;;;6230700;22;20361;-90
2023/07/11 07:37:36;;;;;;;10.17;5.87;;;;;;;;;;6229886;22;20370;-91
2023/07/11 07:40:02;;;;;;;5.50;4.90;;;;;;;;;;6230147;22;20400;-90
2023/07/11 07:42:30;;;;;;;12.97;5.93;;;;;;;;;;6230215;22;20374;-88
2023/07/11 07:44:57;;;;;;;8.63;5.90;;;;;;;;;;6231271;22;20399;-93
2023/07/11 07:47:23;;;;;;;8.60;6.83;;;;;;;;;;6232287;22;20445;-89
2023/07/11 07:49:49;;;;;;;6.20;5.60;;;;;;;;;;6233129;22;20389;-89
2023/07/11 07:52:15;;;;;;;7.50;6.17;;;;;;;;;;6232275;22;20458;-89
2023/07/11 07:54:41;;;;;;;6.30;5.67;;;;;;;;;;6233543;22;20845;-91
2023/07/11 07:57:07;;;;;;;5.67;5.17;;;;;;;;;;6236141;22;20406;-91
2023/07/11 07:59:33;;;;;;;7.03;6.13;;;;;;;;;;6234084;22;20499;-91
2023/07/11 08:01:59;;;;;;;9.67;5.93;;;;;;;;;;6236039;22;20407;-90
2023/07/11 08:04:25;;;;;;;8.60;6.40;;;;;;;;;;6231537;22;20427;-90
2023/07/11 08:06:52;;;;;;;11.43;6.30;;;;;;;;;;6236271;22;20369;-89
2023/07/11 08:09:18;;;;;;;9.40;6.17;;;;;;;;;;6233043;22;20412;-90
2023/07/11 08:11:44;;;;;;;7.40;5.70;;;;;;;;;;6234596;22;20385;-90
2023/07/11 08:14:10;;;;;;;6.70;6.10;;;;;;;;;;6234123;22;20389;-91
2023/07/11 08:16:38;;;;;;;7.20;6.27;;;;;;;;;;6235312;22;20374;-91
2023/07/11 08:19:04;;;;;;;6.40;5.80;;;;;;;;;;6256380;22;20710;-90
2023/07/11 08:21:30;;;;;;;7.80;6.90;;;;;;;;;;6259543;22;20382;-90
2023/07/11 08:23:56;;;;;;;8.77;6.30;;;;;;;;;;6232183;22;20385;-90
2023/07/11 08:26:22;;;;;;;7.00;6.13;;;;;;;;;;6233362;22;20434;-90
2023/07/11 08:28:49;;;;;;;8.90;6.20;;;;;;;;;;6231776;22;20428;-91
2023/07/11 08:31:15;;;;;;;6.93;6.23;;;;;;;;;;6230837;22;20860;-91
2023/07/11 08:33:41;;;;;;;6.30;5.70;;;;;;;;;;6229854;22;20850;-89
2023/07/11 08:36:07;;;;;;;9.03;6.67;;;;;;;;;;6258909;22;20365;-89
2023/07/11 08:38:33;;;;;;;7.13;6.20;;;;;;;;;;6230525;22;20404;-90
2023/07/11 08:41:06;;;;;;;8.20;6.60;;;;;;;;;;6233517;22;20425;-89
2023/07/11 08:43:32;;;;;;;6.30;5.70;;;;;;;;;;6231450;22;20372;-89
2023/07/11 08:46:10;;;;;;;7.43;6.70;;;;;;;;;;6258178;22;20905;-89
2023/07/11 08:48:42;;;;;;;8.37;6.40;;;;;;;;;;6230822;22;20412;-89
2023/07/11 08:51:23;;;;;;;8.40;6.60;;;;;;;;;;6232382;22;20372;-89
2023/07/11 08:53:51;;;;;;;7.60;6.40;;;;;;;;;;6251040;22;20365;-89
2023/07/11 08:56:21;;;;;;;7.90;6.77;;;;;;;;;;6230594;22;20377;-89
2023/07/11 08:58:48;;;;;;;10.50;7.30;;;;;;;;;;6256751;22;20392;-87
2023/07/11 09:01:33;;;;;;;7.40;6.70;;;;;;;;;;6231809;22;20382;-87
2023/07/11 09:03:59;;;;;;;8.73;7.10;;;;;;;;;;6230455;22;20381;-87
2023/07/11 09:06:26;;;;;;;10.03;7.17;;;;;;;;;;6230691;22;20385;-87
2023/07/11 09:08:54;;;;;;;8.63;6.47;;;;;;;;;;6232909;22;20425;-87
2023/07/11 09:11:20;;;;;;;8.40;6.63;;;;;;;;;;6234076;22;20450;-89
2023/07/11 09:13:52;;;;;;;8.77;6.93;;;;;;;;;;6258641;22;20833;-89
2023/07/11 09:16:24;;;;;;;7.70;7.00;;;;;;;;;;6258858;22;20377;-89
2023/07/11 09:19:09;;;;;;;7.90;6.70;;;;;;;;;;6259069;22;20427;-87
2023/07/11 09:21:41;;;;;;;10.20;6.57;;;;;;;;;;6258279;22;20461;-89
2023/07/11 09:24:14;;;;;;;10.80;7.60;;;;;;;;;;6260763;22;20369;-89
2023/07/11 09:26:47;;;;;;;8.50;7.60;;;;;;;;;;6232811;22;20361;-89
2023/07/11 09:29:13;;;;;;;7.93;7.13;;;;;;;;;;6233470;22;20470;-89
2023/07/11 09:31:40;;;;;;;8.47;7.60;;;;;;;;;;6230707;22;20396;-90
2023/07/11 09:34:18;;;;;;;8.10;7.30;;;;;;;;;;6229884;22;20471;-90
2023/07/11 09:36:44;;;;;;;13.30;6.97;;;;;;;;;;6229972;22;20914;-88
2023/07/11 09:39:16;;;;;;;9.70;6.90;;;;;;;;;;6231948;22;20389;-88
2023/07/11 09:41:50;;;;;;;7.30;6.63;;;;;;;;;;6257784;22;20759;-90
2023/07/11 09:44:16;;;;;;;9.33;7.07;;;;;;;;;;6230831;22;20430;-88
2023/07/11 09:46:44;;;;;;;8.70;7.90;;;;;;;;;;6229953;22;20409;-88
2023/07/11 09:49:10;;;;;;;7.43;6.77;;;;;;;;;;6232719;22;20427;-89
2023/07/11 09:51:38;;;;;;;7.63;6.60;;;;;;;;;;6231748;22;20377;-88
2023/07/11 09:54:16;;;;;;;9.20;7.00;;;;;;;;;;6257719;22;20378;-88
2023/07/11 09:56:45;;;;;;;6.57;5.93;;;;;;;;;;6257335;22;20372;-89
2023/07/11 09:59:12;;;;;;;7.50;6.80;;;;;;;;;;6232356;22;20397;-88
2023/07/11 10:01:38;;;;;;;11.07;6.87;;;;;;;;;;6234579;22;20391;-88
2023/07/11 10:04:10;;;;;;;8.20;6.83;;;;;;;;;;6232590;22;20401;-89
2023/07/11 10:06:42;;;;;;;11.70;6.50;;;;;;;;;;6232669;22;20369;-87
2023/07/11 10:09:11;;;;;;;8.50;7.03;;;;;;;;;;6231241;22;20425;-88
2023/07/11 10:11:37;;;;;;;6.23;5.63;;;;;;;;;;6258795;22;20373;-88
2023/07/11 10:14:03;;;;;;;11.53;6.17;;;;;;;;;;6229895;22;20380;-88
2023/07/11 10:16:32;;;;;;;7.20;6.27;;;;;;;;;;6232569;22;21170;-90
2023/07/11 10:18:58;;;;;;;11.57;7.23;;;;;;;;;;6232688;22;20142;-89
2023/07/11 10:21:25;;;;;;;8.30;6.40;;;;;;;;;;6232504;22;20441;-89
2023/07/11 10:23:51;;;;;;;7.63;6.77;;;;;;;;;;6232249;22;20466;-89
2023/07/11 10:26:22;;;;;;;9.30;6.60;;;;;;;;;;6233262;22;20719;-87
2023/07/11 10:29:10;;;;;;;8.57;7.03;;;;;;;;;;6229745;22;20421;-89
2023/07/11 10:31:38;;;;;;;6.87;6.10;;;;;;;;;;6242157;22;20373;-88
2023/07/11 10:34:17;;;;;;;7.93;7.23;;;;;;;;;;6231279;22;20447;-90
2023/07/11 10:36:46;;;;;;;8.07;7.27;;;;;;;;;;6258283;22;20381;-91
2023/07/11 10:39:25;;;;;;;8.10;6.77;;;;;;;;;;6231615;22;20483;-89
2023/07/11 10:42:21;;;;;;;8.83;7.80;;;;;;;;;;6233156;22;20478;-90
2023/07/11 10:44:47;;;;;;;10.47;7.80;;;;;;;;;;6232282;22;20377;-90
2023/07/11 10:47:14;;;;;;;8.57;7.67;;;;;;;;;;6233206;22;20435;-89
2023/07/11 10:49:45;;;;;;;8.23;7.53;;;;;;;;;;6234051;22;20424;-91
2023/07/11 10:52:22;;;;;;;9.10;7.63;;;;;;;;;;6234328;22;20431;-90
2023/07/11 10:54:50;;;;;;;7.87;7.07;;;;;;;;;;6257078;22;20353;-90
2023/07/11 10:57:21;;;;;;;8.60;7.13;;;;;;;;;;6229740;22;20427;-88
2023/07/11 10:59:48;;;;;;;8.70;7.90;;;;;;;;;;6230997;22;20469;-89
2023/07/11 11:02:27;;;;;;;8.13;7.43;;;;;;;;;;6229409;22;20377;-90
2023/07/11 11:04:57;;;;;;;7.43;6.70;;;;;;;;;;6232910;22;20373;-91
2023/07/11 11:07:38;;;;;;;7.90;7.10;;;;;;;;;;6234008;22;20380;-90
2023/07/11 11:10:07;;;;;;;8.70;7.30;;;;;;;;;;6257290;22;20377;-92
2023/07/11 11:12:56;;;;;;;8.43;7.27;;;;;;;;;;6253844;22;20369;-90
2023/07/11 11:15:26;;;;;;;9.83;7.87;;;;;;;;;;6242309;22;20369;-92
2023/07/11 11:17:52;;;;;;;15.97;8.37;;;;;;;;;;6228488;22;20373;-90
2023/07/11 11:20:21;;;;;;;8.83;7.93;;;;;;;;;;6256762;22;20380;-89
2023/07/11 11:22:56;;;;;;;8.30;7.50;;;;;;;;;;6254889;22;20369;-90
2023/07/11 11:25:41;;;;;;;8.70;7.90;;;;;;;;;;6257829;22;20364;-90
2023/07/11 11:28:10;;;;;;;8.70;7.90;;;;;;;;;;6256455;22;20462;-90
2023/07/11 11:30:48;;;;;;;10.43;8.37;;;;;;;;;;6231099;22;21089;-90
2023/07/11 11:33:37;;;;;;;7.77;7.07;;;;;;;;;;6229127;22;20388;-90
2023/07/11 11:36:18;;;;;;;8.00;7.20;;;;;;;;;;6232181;22;20373;-89
2023/07/11 11:39:00;;;;;;;10.30;8.37;;;;;;;;;;6280182;22;20457;-91
2023/07/11 11:41:35;;;;;;;9.50;7.73;;;;;;;;;;6256273;22;20381;-90
2023/07/11 11:44:04;;;;;;;8.33;7.10;;;;;;;;;;6229727;22;20373;-90
2023/07/11 11:46:30;;;;;;;7.93;7.13;;;;;;;;;;6230547;22;20377;-90
2023/07/11 11:48:57;;;;;;;7.60;6.80;;;;;;;;;;6194398;23;20456;-89
2023/07/11 11:51:23;;;;;;;12.60;7.43;;;;;;;;;;6164864;23;20386;-91
2023/07/11 11:54:25;;;;;;;7.93;7.20;;;;;;;;;;6164154;23;20376;-90
2023/07/11 11:56:54;;;;;;;6.97;6.33;;;;;;;;;;6048328;23;20378;-88
2023/07/11 11:59:22;;;;;;;8.80;8.00;;;;;;;;;;6145297;23;20403;-90
2023/07/11 12:01:48;;;;;;;9.73;8.53;;;;;;;;;;6166453;23;20379;-90
2023/07/11 12:04:29;;;;;;;7.90;7.20;;;;;;;;;;6189074;23;20463;-91
2023/07/11 12:07:13;;;;;;;9.13;7.87;;;;;;;;;;6190569;23;20406;-92
2023/07/11 12:09:56;;;;;;;9.40;7.70;;;;;;;;;;6190359;23;20438;-90
2023/07/11 12:12:37;;;;;;;8.80;7.90;;;;;;;;;;6188414;23;20380;-89
2023/07/11 12:15:12;;;;;;;8.30;7.60;;;;;;;;;;6189163;23;20372;-89
2023/07/11 12:17:40;;;;;;;8.97;7.90;;;;;;;;;;6188699;23;20368;-89
2023/07/11 12:20:06;;;;;;;8.70;7.80;;;;;;;;;;6189581;23;20415;-89
2023/07/11 12:22:52;;;;;;;8.50;7.40;;;;;;;;;;6187962;23;20377;-89
2023/07/11 12:25:24;;;;;;;10.13;7.90;;;;;;;;;;6192579;23;20400;-90
2023/07/11 12:27:53;;;;;;;8.17;7.47;;;;;;;;;;6227339;22;20405;-89
2023/07/11 12:30:35;;;;;;;9.57;8.77;;;;;;;;;;6256580;22;20377;-88
2023/07/11 12:33:24;;;;;;;7.87;6.70;;;;;;;;;;6254961;22;20382;-88
2023/07/11 12:35:59;;;;;;;7.77;7.07;;;;;;;;;;6266364;22;20373;-88
2023/07/11 12:38:48;;;;;;;8.40;6.97;;;;;;;;;;6230806;22;20377;-90
2023/07/11 12:41:21;;;;;;;7.83;7.00;;;;;;;;;;6214940;22;20374;-88
2023/07/11 12:43:48;;;;;;;7.73;6.67;;;;;;;;;;6231126;22;20373;-89
2023/07/11 12:46:26;;;;;;;7.90;7.10;;;;;;;;;;6258205;22;20512;-89
2023/07/11 12:48:53;;;;;;;10.80;7.60;;;;;;;;;;6232826;22;20511;-88
2023/07/11 12:51:24;;;;;;;7.87;7.00;;;;;;;;;;6231041;22;20391;-89
2023/07/11 12:54:00;;;;;;;8.50;7.07;;;;;;;;;;6228809;22;20579;-88
2023/07/11 12:56:27;;;;;;;7.97;7.17;;;;;;;;;;6254636;22;20371;-87
2023/07/11 12:58:53;;;;;;;7.80;7.10;;;;;;;;;;6229022;22;20377;-88
2023/07/11 13:01:19;;;;;;;7.37;6.50;;;;;;;;;;6253920;22;20391;-88
2023/07/11 13:03:45;;;;;;;7.87;6.60;;;;;;;;;;6256912;22;20403;-88
2023/07/11 13:06:25;;;;;;;7.57;6.70;;;;;;;;;;6229079;22;20178;-88
2023/07/11 13:08:51;;;;;;;7.90;7.20;;;;;;;;;;6229127;22;20452;-87
2023/07/11 13:11:19;;;;;;;8.20;7.17;;;;;;;;;;6256409;22;20362;-88
2023/07/11 13:13:45;;;;;;;8.47;7.53;;;;;;;;;;6230570;22;20463;-91
2023/07/11 13:16:12;;;;;;;8.10;7.30;;;;;;;;;;6234097;22;20377;-91
2023/07/11 13:18:42;;;;;;;8.33;7.53;;;;;;;;;;6231001;22;20385;-91
2023/07/11 13:21:08;;;;;;;7.87;7.17;;;;;;;;;;6228317;22;20456;-89
2023/07/11 13:23:35;;;;;;;8.93;8.13;;;;;;;;;;6228398;22;20381;-92
2023/07/11 13:26:01;;;;;;;8.70;7.23;;;;;;;;;;6230227;22;20397;-90
2023/07/11 13:28:37;;;;;;;7.80;7.10;;;;;;;;;;6230243;22;20429;-89
2023/07/11 13:31:04;;;;;;;8.07;7.37;;;;;;;;;;6229970;22;20384;-90
2023/07/11 13:33:34;;;;;;;7.20;6.57;;;;;;;;;;6230201;22;20386;-90
2023/07/11 13:36:26;;;;;;;8.50;7.70;;;;;;;;;;6231137;22;20385;-90
2023/07/11 13:38:55;;;;;;;8.13;7.37;;;;;;;;;;6252522;22;20373;-89
2023/07/11 13:41:28;;;;;;;8.23;7.47;;;;;;;;;;6231463;22;20389;-89
2023/07/11 13:43:56;;;;;;;7.97;7.27;;;;;;;;;;6231042;22;20381;-89
2023/07/11 13:46:23;;;;;;;8.80;8.00;;;;;;;;;;6230155;22;20401;-90
2023/07/11 13:48:49;;;;;;;8.03;7.23;;;;;;;;;;6231314;22;20425;-89
2023/07/11 13:51:17;;;;;;;8.57;7.67;;;;;;;;;;6235169;22;20459;-91
2023/07/11 13:53:48;;;;;;;11.47;8.03;;;;;;;;;;6256611;22;20374;-91
2023/07/11 13:56:14;;;;;;;8.70;7.47;;;;;;;;;;6231819;22;20393;-94
2023/07/11 13:58:40;;;;;;;10.47;6.90;;;;;;;;;;6233868;22;20921;-94
2023/07/11 14:01:09;;;;;;;7.77;7.07;;;;;;;;;;6231753;22;20373;-93
2023/07/11 14:03:35;;;;;;;7.80;7.10;;;;;;;;;;6232087;22;20393;-94
2023/07/11 14:06:01;;;;;;;8.20;7.50;;;;;;;;;;6255892;22;20377;-92
2023/07/11 14:08:27;;;;;;;7.17;6.47;;;;;;;;;;6232694;22;20194;-92
2023/07/11 14:10:53;;;;;;;13.97;8.17;;;;;;;;;;6230788;22;20398;-91
2023/07/11 14:13:23;;;;;;;9.33;7.73;;;;;;;;;;6230840;22;20386;-89
2023/07/11 14:15:49;;;;;;;8.73;7.80;;;;;;;;;;6255717;22;20365;-90
2023/07/11 14:18:15;;;;;;;9.47;8.20;;;;;;;;;;6228314;22;20764;-89
2023/07/11 14:20:41;;;;;;;8.40;7.70;;;;;;;;;;6230776;22;20421;-91
2023/07/11 14:23:37;;;;;;;8.33;7.53;;;;;;;;;;6229192;22;20481;-91
2023/07/11 14:26:06;;;;;;;9.57;7.43;;;;;;;;;;6236595;22;20384;-92
2023/07/11 14:28:32;;;;;;;6.77;6.07;;;;;;;;;;6231038;22;20424;-92
2023/07/11 14:30:59;;;;;;;8.47;7.10;;;;;;;;;;6231143;22;20381;-91
2023/07/11 14:33:26;;;;;;;9.80;7.60;;;;;;;;;;6232428;22;20408;-93
2023/07/11 14:35:52;;;;;;;8.40;7.50;;;;;;;;;;6230648;22;20385;-91
2023/07/11 14:38:18;;;;;;;10.10;8.00;;;;;;;;;;6230561;22;20385;-91
2023/07/11 14:40:44;;;;;;;9.63;8.73;;;;;;;;;;6229846;22;20393;-91